Time;durP1;ratioP1;P1;durP2;ratioP2;P2;SDS_P1;SDS_P2;PMS_P1;PMS_P2;Temp;Humidity;BMP_temperature;BMP_pressure;BME280_temperature;BME280_humidity;BME280_pressure;Samples;Min_cycle;Max_cycle;Signal;HPM_P1;HPM_P2
2024/02/17 00:00:25;;;;;;;8.97;7.97;;;;;;;3.29;100.00;98252.56;6307233;28;20190;-54
2024/02/17 00:03:28;;;;;;;11.83;7.43;;;;;;;3.26;100.00;98246.88;6302067;28;20730;-53
2024/02/17 00:06:30;;;;;;;9.77;7.83;;;;;;;3.11;100.00;98249.50;6317768;28;20197;-53
2024/02/17 00:09:34;;;;;;;10.40;7.50;;;;;;;3.10;100.00;98250.47;6307719;28;20199;-53
2024/02/17 00:12:37;;;;;;;11.50;7.90;;;;;;;3.00;100.00;98249.91;6302682;28;20332;-53
2024/02/17 00:15:39;;;;;;;11.47;8.30;;;;;;;2.98;100.00;98252.72;6307623;28;20581;-53
2024/02/17 00:18:42;;;;;;;8.73;7.10;;;;;;;3.09;100.00;98252.28;6309491;28;20183;-54
2024/02/17 00:21:44;;;;;;;11.77;7.70;;;;;;;2.92;100.00;98252.63;6314148;28;20205;-53
2024/02/17 00:24:46;;;;;;;9.87;8.20;;;;;;;2.98;100.00;98252.72;6297597;28;20672;-54
2024/02/17 00:27:50;;;;;;;8.47;7.00;;;;;;;2.75;100.00;98255.41;6298688;28;20203;-52
2024/02/17 00:30:53;;;;;;;11.23;7.20;;;;;;;2.66;100.00;98259.13;6305767;28;20198;-54
2024/02/17 00:33:55;;;;;;;9.23;6.80;;;;;;;2.98;100.00;98257.19;6306316;28;20200;-53
2024/02/17 00:36:58;;;;;;;7.37;6.53;;;;;;;2.91;100.00;98266.81;6307407;28;20716;-51
2024/02/17 00:40:01;;;;;;;13.43;7.47;;;;;;;2.81;100.00;98261.78;6311411;28;20690;-54
2024/02/17 00:43:03;;;;;;;8.30;6.70;;;;;;;2.73;100.00;98267.09;6311124;28;20217;-54
2024/02/17 00:46:07;;;;;;;7.83;6.90;;;;;;;2.76;100.00;98264.94;6309507;28;20225;-55
2024/02/17 00:49:10;;;;;;;9.30;6.40;;;;;;;2.76;100.00;98266.75;6304991;28;20562;-52
2024/02/17 00:52:14;;;;;;;7.20;6.50;;;;;;;2.89;100.00;98250.34;6308534;28;20694;-54
2024/02/17 00:55:16;;;;;;;9.67;6.00;;;;;;;2.91;100.00;98264.16;6314013;28;20192;-54
2024/02/17 00:58:18;;;;;;;9.97;6.43;;;;;;;2.70;100.00;98262.19;6314755;28;20203;-53
2024/02/17 01:01:20;;;;;;;8.77;6.37;;;;;;;2.98;100.00;98252.72;6308392;28;20190;-53
2024/02/17 01:04:34;;;;;;;8.10;6.13;;;;;;;2.87;100.00;98268.16;6304158;28;20218;-50
2024/02/17 01:07:36;;;;;;;6.90;6.13;;;;;;;2.65;100.00;98233.78;6305353;28;20674;-57
2024/02/17 01:10:39;;;;;;;9.20;6.27;;;;;;;2.60;100.00;98265.06;6297473;28;20214;-53
2024/02/17 01:13:45;;;;;;;8.23;6.70;;;;;;;2.55;100.00;98265.59;6295615;28;20236;-54
2024/02/17 01:16:47;;;;;;;7.83;6.07;;;;;;;2.56;100.00;98262.00;6313951;28;20201;-54
2024/02/17 01:19:49;;;;;;;8.13;5.80;;;;;;;2.70;100.00;98254.28;6303935;28;20672;-54
2024/02/17 01:22:52;;;;;;;7.63;5.40;;;;;;;2.62;100.00;98262.28;6304246;28;20321;-54
2024/02/17 01:25:55;;;;;;;7.53;5.60;;;;;;;2.62;100.00;98259.66;6298852;28;20722;-54
2024/02/17 01:28:57;;;;;;;6.87;5.27;;;;;;;2.49;100.00;98257.59;6307549;28;20206;-53
2024/02/17 01:31:59;;;;;;;9.07;5.77;;;;;;;2.69;100.00;98264.00;6304138;28;20224;-55
2024/02/17 01:35:02;;;;;;;5.67;4.73;;;;;;;2.63;100.00;98269.97;6304378;28;20190;-51
2024/02/17 01:38:07;;;;;;;6.53;5.07;;;;;;;2.62;100.00;98265.72;6304458;28;20964;-52
2024/02/17 01:41:09;;;;;;;6.10;5.03;;;;;;;2.66;100.00;98264.38;6306274;28;20829;-53
2024/02/17 01:44:11;;;;;;;6.20;4.77;;;;;;;2.61;100.00;98266.72;6297252;28;20835;-53
2024/02/17 01:47:14;;;;;;;8.60;4.80;;;;;;;2.69;100.00;98265.81;6303141;28;20277;-54
2024/02/17 01:50:17;;;;;;;6.07;4.60;;;;;;;2.66;100.00;98274.91;6301853;28;20221;-54
2024/02/17 01:53:19;;;;;;;6.80;4.60;;;;;;;2.49;100.00;98276.81;6304129;28;20182;-54
2024/02/17 01:56:22;;;;;;;5.80;4.73;;;;;;;2.41;100.00;98271.59;6307149;28;20186;-53
2024/02/17 01:59:25;;;;;;;4.97;4.40;;;;;;;2.56;100.00;98262.00;6308248;28;20264;-53
2024/02/17 02:02:28;;;;;;;8.87;4.63;;;;;;;2.60;100.00;98267.69;6306263;28;20209;-50
2024/02/17 02:05:31;;;;;;;6.37;4.57;;;;;;;2.32;100.00;98267.41;6299388;28;20255;-53
2024/02/17 02:08:33;;;;;;;5.30;4.63;;;;;;;2.22;100.00;98270.28;6300149;28;20251;-52
2024/02/17 02:11:36;;;;;;;6.47;3.93;;;;;;;2.28;100.00;98268.75;6304524;28;20194;-53
2024/02/17 02:14:39;;;;;;;9.73;4.80;;;;;;;2.20;100.00;98279.31;6299046;28;20248;-52
2024/02/17 02:17:41;;;;;;;7.50;3.97;;;;;;;2.01;100.00;98249.03;6310034;28;20202;-54
2024/02/17 02:20:44;;;;;;;5.80;4.90;;;;;;;2.06;100.00;98272.97;6308691;28;20203;-54
2024/02/17 02:23:47;;;;;;;7.70;5.60;;;;;;;2.17;100.00;98269.97;6310477;28;20189;-53
2024/02/17 02:26:49;;;;;;;9.80;5.20;;;;;;;1.98;100.00;98259.91;6305919;28;20262;-53
2024/02/17 02:29:52;;;;;;;6.60;5.47;;;;;;;1.92;100.00;98260.56;6303835;28;20182;-54
2024/02/17 02:32:58;;;;;;;5.60;4.53;;;;;;;1.84;100.00;98256.19;6302470;28;20205;-52
2024/02/17 02:36:01;;;;;;;6.53;4.60;;;;;;;1.85;100.00;98265.72;6311760;28;20188;-52
2024/02/17 02:39:03;;;;;;;5.97;4.70;;;;;;;1.72;100.00;98268.88;6309976;28;20202;-54
2024/02/17 02:42:05;;;;;;;5.80;4.63;;;;;;;1.68;100.00;98267.59;6302473;28;20697;-53
2024/02/17 02:45:08;;;;;;;8.13;4.63;;;;;;;1.73;100.00;98262.66;6305757;28;20229;-52
2024/02/17 02:48:10;;;;;;;5.43;3.97;;;;;;;1.72;100.00;98268.88;6303590;28;20200;-54
2024/02/17 02:51:17;;;;;;;6.97;4.57;;;;;;;1.74;100.00;98273.97;6313884;28;20244;-51
2024/02/17 02:54:21;;;;;;;5.90;4.37;;;;;;;1.68;100.00;98262.34;6302349;28;20201;-54
2024/02/17 02:57:24;;;;;;;7.33;4.40;;;;;;;1.76;100.00;98272.81;6304772;28;20270;-53
2024/02/17 03:00:26;;;;;;;6.13;4.20;;;;;;;1.67;100.00;98280.88;6302030;28;20222;-52
2024/02/17 03:03:31;;;;;;;7.73;4.63;;;;;;;1.67;100.00;98280.88;6300282;28;20969;-52
2024/02/17 03:06:34;;;;;;;6.40;5.27;;;;;;;1.91;100.00;98278.16;6312493;28;20700;-52
2024/02/17 03:09:37;;;;;;;7.47;5.17;;;;;;;1.77;100.00;98277.09;6303772;28;20199;-53
2024/02/17 03:12:39;;;;;;;7.00;5.07;;;;;;;1.90;100.00;98288.84;6302270;28;20196;-53
2024/02/17 03:15:41;;;;;;;5.93;4.77;;;;;;;1.78;100.00;98285.78;6307643;28;20235;-49
2024/02/17 03:18:44;;;;;;;7.33;4.93;;;;;;;1.92;100.00;98292.09;6305578;28;20244;-52
2024/02/17 03:21:46;;;;;;;6.97;5.23;;;;;;;1.92;100.00;98292.09;6310295;28;20666;-53
2024/02/17 03:24:49;;;;;;;6.27;5.10;;;;;;;1.92;100.00;98284.22;6300477;28;20696;-52
2024/02/17 03:27:51;;;;;;;6.50;5.40;;;;;;;2.04;100.00;98286.31;6308363;28;20632;-53
2024/02/17 03:30:53;;;;;;;5.77;5.00;;;;;;;2.08;100.00;98286.78;6302841;28;20197;-54
2024/02/17 03:33:55;;;;;;;7.17;5.80;;;;;;;1.98;100.00;98284.38;6311400;28;20200;-55
2024/02/17 03:36:58;;;;;;;8.50;5.83;;;;;;;2.03;100.00;98302.25;6303073;28;20274;-53
2024/02/17 03:40:00;;;;;;;7.10;6.10;;;;;;;2.03;100.00;98297.00;6298933;28;20288;-53
2024/02/17 03:43:02;;;;;;;10.47;6.70;;;;;;;1.95;100.00;98304.91;6304810;28;20653;-54
2024/02/17 03:46:05;;;;;;;10.20;6.50;;;;;;;2.14;100.00;98295.78;6304195;28;20222;-54
2024/02/17 03:49:07;;;;;;;7.70;6.27;;;;;;;2.17;100.00;98306.78;6305092;28;20197;-54
2024/02/17 03:52:10;;;;;;;6.83;5.60;;;;;;;2.24;100.00;98305.06;6306490;28;20193;-54
2024/02/17 03:55:12;;;;;;;10.77;8.40;;;;;;;2.32;100.00;98305.03;6308862;28;20192;-53
2024/02/17 03:58:15;;;;;;;7.53;6.37;;;;;;;2.29;100.00;98291.41;6304023;28;20230;-54
2024/02/17 04:01:18;;;;;;;9.97;6.90;;;;;;;2.41;100.00;98310.22;6315099;28;20281;-53
2024/02/17 04:04:20;;;;;;;9.67;6.97;;;;;;;2.32;100.00;98293.72;6311246;28;20212;-52
2024/02/17 04:07:22;;;;;;;10.67;7.10;;;;;;;2.43;100.00;98316.97;6307064;28;20216;-51
2024/02/17 04:10:24;;;;;;;8.67;7.00;;;;;;;2.54;100.00;98319.19;6306898;28;20205;-54
2024/02/17 04:13:27;;;;;;;9.90;7.97;;;;;;;2.82;100.00;98310.78;6307179;28;20563;-54
2024/02/17 04:16:29;;;;;;;16.90;10.57;;;;;;;2.93;100.00;98314.78;6300349;28;20194;-54
2024/02/17 04:19:31;;;;;;;14.83;9.60;;;;;;;3.27;100.00;98311.69;6311377;28;20204;-54
2024/02/17 04:22:34;;;;;;;17.20;10.83;;;;;;;3.38;100.00;98323.59;6307327;28;20686;-53
2024/02/17 04:25:40;;;;;;;16.80;12.43;;;;;;;3.84;100.00;98314.53;6302630;28;20202;-53
2024/02/17 04:28:42;;;;;;;19.17;13.30;;;;;;;4.18;100.00;98318.38;6313095;28;20194;-54
2024/02/17 04:31:44;;;;;;;22.23;13.07;;;;;;;4.32;100.00;98314.88;6310072;28;20228;-53
2024/02/17 04:34:47;;;;;;;19.30;13.07;;;;;;;4.54;100.00;98312.28;6301135;28;20194;-54
2024/02/17 04:37:51;;;;;;;22.33;15.23;;;;;;;4.81;100.00;98316.81;6302637;28;20667;-50
2024/02/17 04:40:53;;;;;;;21.50;13.87;;;;;;;4.87;100.00;98307.31;6306432;28;20230;-54
2024/02/17 04:43:55;;;;;;;19.03;14.50;;;;;;;5.57;100.00;98317.00;6302650;28;20193;-53
2024/02/17 04:46:58;;;;;;;21.70;13.63;;;;;;;5.88;100.00;98321.03;6308501;28;20660;-54
2024/02/17 04:50:00;;;;;;;15.67;11.23;;;;;;;6.36;100.00;98311.28;6311622;28;20213;-55
2024/02/17 04:53:02;;;;;;;14.30;8.80;;;;;;;6.64;100.00;98315.63;6306377;28;20197;-55
2024/02/17 04:56:05;;;;;;;12.73;8.80;;;;;;;6.97;100.00;98311.19;6303901;28;20201;-55
2024/02/17 04:59:07;;;;;;;12.43;7.87;;;;;;;7.05;100.00;98304.06;6303297;28;20229;-54
2024/02/17 05:02:11;;;;;;;10.80;8.70;;;;;;;6.64;100.00;98323.56;6305253;28;20492;-54
2024/02/17 05:05:16;;;;;;;10.63;8.80;;;;;;;6.04;100.00;98317.25;6312986;28;20265;-55
2024/02/17 05:08:18;;;;;;;9.87;7.90;;;;;;;5.85;100.00;98314.28;6301016;28;20251;-53
2024/02/17 05:11:20;;;;;;;10.43;8.90;;;;;;;5.55;100.00;98323.47;6308811;28;20222;-57
2024/02/17 05:14:23;;;;;;;10.50;9.13;;;;;;;5.10;100.00;98334.31;6307137;28;20199;-55
2024/02/17 05:17:26;;;;;;;9.47;8.00;;;;;;;4.88;100.00;98335.38;6310536;28;20199;-54
2024/02/17 05:20:28;;;;;;;13.13;9.27;;;;;;;4.51;100.00;98336.41;6310706;28;20204;-53
2024/02/17 05:23:30;;;;;;;11.13;8.90;;;;;;;4.33;100.00;98342.06;6303055;28;20195;-55
2024/02/17 05:26:37;;;;;;;10.90;9.10;;;;;;;4.20;100.00;98348.03;6303776;28;20729;-53
2024/02/17 05:29:40;;;;;;;11.40;9.00;;;;;;;4.11;100.00;98344.66;6297821;28;20646;-53
2024/02/17 05:32:43;;;;;;;12.73;9.67;;;;;;;4.04;100.00;98340.31;6297613;28;20200;-54
2024/02/17 05:35:46;;;;;;;11.33;9.23;;;;;;;4.05;100.00;98341.97;6310430;28;20211;-54
2024/02/17 05:38:48;;;;;;;16.50;11.17;;;;;;;3.88;100.00;98343.97;6294728;28;20198;-55
2024/02/17 05:41:52;;;;;;;15.23;10.70;;;;;;;3.93;100.00;98348.69;6303869;28;20230;-54
2024/02/17 05:44:54;;;;;;;14.17;10.47;;;;;;;3.97;100.00;98342.88;6302610;28;20687;-56
2024/02/17 05:47:56;;;;;;;12.73;10.27;;;;;;;3.97;100.00;98342.06;6300924;28;20945;-53
2024/02/17 05:50:59;;;;;;;14.50;10.77;;;;;;;3.97;100.00;98345.50;6309081;28;20680;-52
2024/02/17 05:54:01;;;;;;;15.87;11.23;;;;;;;3.94;100.00;98334.50;6310101;28;20191;-54
2024/02/17 05:57:04;;;;;;;15.80;10.97;;;;;;;4.09;100.00;98354.59;6302658;28;20562;-56
2024/02/17 06:00:06;;;;;;;13.30;10.90;;;;;;;4.18;100.00;98349.19;6305859;28;20664;-54
2024/02/17 06:03:09;;;;;;;12.07;10.33;;;;;;;4.32;100.00;98361.56;6303139;28;20210;-55
2024/02/17 06:06:11;;;;;;;13.43;10.77;;;;;;;4.39;100.00;98370.38;6309696;28;20229;-55
2024/02/17 06:09:13;;;;;;;11.60;9.73;;;;;;;4.44;100.00;98370.63;6308019;28;20660;-54
2024/02/17 06:12:15;;;;;;;11.60;9.53;;;;;;;4.63;100.00;98369.19;6312648;28;20194;-53
2024/02/17 06:15:17;;;;;;;13.67;9.03;;;;;;;4.69;100.00;98350.00;6300112;28;20282;-54
2024/02/17 06:21:41;;;;;;;11.43;9.27;;;;;;;5.26;100.00;98393.16;6306503;28;20192;-54
2024/02/17 06:24:43;;;;;;;12.23;9.10;;;;;;;5.44;100.00;98394.34;6311370;28;20193;-53
2024/02/17 06:27:45;;;;;;;14.73;10.50;;;;;;;5.85;100.00;98390.97;6299280;28;20207;-54
2024/02/17 06:30:47;;;;;;;10.60;8.20;;;;;;;6.25;100.00;98395.69;6297921;28;20201;-53
2024/02/17 06:33:51;;;;;;;11.30;9.00;;;;;;;6.23;100.00;98403.84;6305666;28;20685;-53
2024/02/17 06:36:54;;;;;;;20.03;14.20;;;;;;;6.17;100.00;98409.91;6305691;28;20536;-53
2024/02/17 06:39:56;;;;;;;20.93;14.00;;;;;;;5.97;100.00;98414.28;6308875;28;20206;-55
2024/02/17 06:42:58;;;;;;;17.30;13.00;;;;;;;5.90;100.00;98419.47;6310152;28;20284;-51
2024/02/17 06:46:01;;;;;;;19.53;13.53;;;;;;;5.78;100.00;98395.41;6301013;28;20216;-54
2024/02/17 06:49:03;;;;;;;16.20;12.43;;;;;;;6.12;100.00;98425.56;6308646;28;20203;-54
2024/02/17 06:52:05;;;;;;;15.37;11.50;;;;;;;6.24;100.00;98421.34;6305497;28;20691;-55
2024/02/17 06:55:08;;;;;;;21.13;12.10;;;;;;;6.46;100.00;98427.38;6306242;28;20221;-55
2024/02/17 06:58:10;;;;;;;13.43;11.20;;;;;;;6.54;100.00;98424.53;6306711;28;20228;-54
2024/02/17 07:01:12;;;;;;;15.60;10.70;;;;;;;6.95;100.00;98440.38;6304087;28;20212;-55
2024/02/17 07:04:15;;;;;;;15.97;11.27;;;;;;;7.04;100.00;98432.22;6313465;28;20194;-56
2024/02/17 07:07:18;;;;;;;17.37;10.57;;;;;;;7.21;100.00;98449.41;6306349;28;20233;-55
2024/02/17 07:10:20;;;;;;;13.00;9.90;;;;;;;7.38;100.00;98441.88;6310765;28;20186;-54
2024/02/17 07:13:22;;;;;;;12.90;10.03;;;;;;;7.38;100.00;98439.22;6299899;28;20201;-55
2024/02/17 07:16:26;;;;;;;12.87;9.50;;;;;;;7.60;100.00;98453.13;6305506;28;20659;-56
2024/02/17 07:19:28;;;;;;;11.97;8.93;;;;;;;7.69;100.00;98460.66;6304025;28;20190;-55
2024/02/17 07:22:30;;;;;;;10.77;7.90;;;;;;;7.78;100.00;98465.75;6310822;28;20201;-56
2024/02/17 07:25:34;;;;;;;13.70;10.10;;;;;;;7.85;100.00;98475.34;6305390;28;20244;-55
2024/02/17 07:28:37;;;;;;;14.17;10.37;;;;;;;7.88;100.00;98476.75;6301882;28;20206;-55
2024/02/17 07:31:42;;;;;;;12.13;10.03;;;;;;;7.82;100.00;98459.84;6317187;28;20199;-55
2024/02/17 07:34:46;;;;;;;14.63;9.90;;;;;;;7.79;100.00;98447.00;6311809;28;20190;-56
2024/02/17 07:37:48;;;;;;;12.33;10.43;;;;;;;8.10;100.00;98474.72;6300764;28;20823;-53
2024/02/17 07:40:50;;;;;;;15.23;11.07;;;;;;;8.20;100.00;98483.88;6307065;28;20594;-56
2024/02/17 07:43:54;;;;;;;13.07;10.20;;;;;;;8.38;100.00;98490.44;6308788;28;20218;-54
2024/02/17 07:46:56;;;;;;;18.37;11.73;;;;;;;8.67;100.00;98486.44;6310090;28;20210;-56
2024/02/17 07:49:59;;;;;;;16.40;11.60;;;;;;;8.81;100.00;98497.84;6298828;28;20193;-55
2024/02/17 07:53:02;;;;;;;13.83;10.33;;;;;;;8.69;100.00;98503.00;6300640;28;20195;-54
2024/02/17 07:56:05;;;;;;;13.53;10.60;;;;;;;8.70;100.00;98509.94;6308213;28;20210;-55
2024/02/17 07:59:08;;;;;;;13.33;11.60;;;;;;;9.07;100.00;98511.06;6300696;28;20570;-55
2024/02/17 08:02:11;;;;;;;15.20;11.17;;;;;;;9.20;100.00;98516.28;6312907;28;20210;-55
2024/02/17 08:05:13;;;;;;;14.90;11.57;;;;;;;9.86;100.00;98520.41;6309651;28;20200;-53
2024/02/17 08:08:17;;;;;;;13.67;10.00;;;;;;;9.94;100.00;98509.47;6315436;28;20228;-53
2024/02/17 08:11:19;;;;;;;11.20;9.83;;;;;;;9.99;100.00;98522.94;6309648;28;20247;-54
2024/02/17 08:14:21;;;;;;;10.47;9.20;;;;;;;10.11;100.00;98523.06;6307779;28;20334;-52
2024/02/17 08:17:23;;;;;;;11.30;10.10;;;;;;;10.53;100.00;98520.63;6304549;28;20189;-55
2024/02/17 08:20:26;;;;;;;11.63;10.03;;;;;;;10.88;100.00;98533.38;6299687;28;20202;-55
2024/02/17 08:23:28;;;;;;;11.73;9.50;;;;;;;11.26;100.00;98530.47;6317031;28;20223;-55
2024/02/17 08:26:32;;;;;;;10.33;8.97;;;;;;;11.42;100.00;98531.69;6307330;28;20213;-56
2024/02/17 08:29:35;;;;;;;8.60;7.70;;;;;;;11.66;100.00;98535.25;6306083;28;20300;-54
2024/02/17 08:32:37;;;;;;;8.23;6.47;;;;;;;11.68;100.00;98536.69;6310478;28;20201;-56
2024/02/17 08:35:40;;;;;;;7.60;6.80;;;;;;;11.80;100.00;98542.03;6300895;28;20497;-55
2024/02/17 08:38:42;;;;;;;9.57;6.87;;;;;;;12.02;100.00;98543.16;6302745;28;20194;-56
2024/02/17 08:41:45;;;;;;;8.13;7.10;;;;;;;11.90;100.00;98560.19;6306490;28;20234;-53
2024/02/17 08:44:52;;;;;;;6.67;5.23;;;;;;;12.03;100.00;98563.50;6304826;28;20220;-56
2024/02/17 08:47:57;;;;;;;5.43;4.93;;;;;;;11.96;100.00;98543.25;6306249;28;20703;-56
2024/02/17 08:51:00;;;;;;;5.87;5.00;;;;;;;12.19;100.00;98556.66;6292396;28;20678;-55
2024/02/17 08:54:02;;;;;;;4.80;4.30;;;;;;;12.33;100.00;98570.63;6299102;28;20198;-56
2024/02/17 08:57:05;;;;;;;4.40;4.00;;;;;;;12.21;100.00;98572.44;6301707;28;20274;-53
2024/02/17 09:00:07;;;;;;;3.87;3.47;;;;;;;12.10;100.00;98582.06;6306321;28;20672;-55
2024/02/17 09:03:11;;;;;;;3.03;2.73;;;;;;;11.82;100.00;98567.50;6313527;28;20198;-56
2024/02/17 09:06:13;;;;;;;3.10;2.80;;;;;;;11.93;100.00;98587.25;6306195;28;20206;-56
2024/02/17 09:09:16;;;;;;;2.97;2.50;;;;;;;11.76;100.00;98581.72;6299653;28;20825;-54
2024/02/17 09:12:20;;;;;;;3.03;2.40;;;;;;;11.79;100.00;98593.81;6295453;28;20205;-55
2024/02/17 09:15:22;;;;;;;3.87;2.73;;;;;;;11.75;100.00;98597.97;6310021;28;20194;-55
2024/02/17 09:18:24;;;;;;;2.20;2.00;;;;;;;11.58;100.00;98600.47;6303620;28;20331;-54
2024/02/17 09:21:27;;;;;;;2.33;2.13;;;;;;;11.63;100.00;98601.41;6302747;28;20675;-52
2024/02/17 09:24:31;;;;;;;1.70;1.60;;;;;;;11.61;100.00;98602.66;6306252;28;20674;-54
2024/02/17 09:27:33;;;;;;;3.63;2.00;;;;;;;11.67;100.00;98606.28;6305876;28;20217;-54
2024/02/17 09:30:36;;;;;;;2.73;1.70;;;;;;;11.34;100.00;98587.00;6300196;28;20675;-53
2024/02/17 09:33:39;;;;;;;1.70;1.60;;;;;;;11.39;100.00;98610.34;6300981;28;20187;-54
2024/02/17 09:36:43;;;;;;;1.43;1.10;;;;;;;11.43;100.00;98624.03;6295634;28;20182;-57
2024/02/17 09:39:45;;;;;;;1.27;1.17;;;;;;;11.49;100.00;98623.97;6314404;28;20189;-54
2024/02/17 09:42:48;;;;;;;1.47;1.00;;;;;;;11.42;100.00;98631.22;6297451;28;20324;-56
2024/02/17 09:45:52;;;;;;;1.07;1.00;;;;;;;11.36;100.00;98634.78;6307501;28;20220;-55
2024/02/17 09:48:59;;;;;;;1.20;1.10;;;;;;;11.24;100.00;98640.06;6302054;28;20576;-56
2024/02/17 09:52:02;;;;;;;0.87;0.87;;;;;;;11.44;100.00;98647.84;6304245;28;20977;-55
2024/02/17 09:55:04;;;;;;;1.30;1.20;;;;;;;11.30;100.00;98649.03;6301007;28;20233;-54
2024/02/17 09:58:11;;;;;;;1.20;1.07;;;;;;;11.19;100.00;98658.59;6304431;28;20202;-54
2024/02/17 10:01:20;;;;;;;1.37;1.17;;;;;;;11.26;100.00;98679.84;6299021;28;20323;-53
2024/02/17 10:04:23;;;;;;;1.10;1.00;;;;;;;11.24;100.00;98693.41;6313919;28;20542;-54
2024/02/17 10:07:30;;;;;;;2.50;2.27;;;;;;;10.77;100.00;98681.53;6302942;28;20210;-51
2024/02/17 10:10:35;;;;;;;2.23;2.00;;;;;;;10.85;100.00;98698.06;6305349;28;20225;-53
2024/02/17 10:13:39;;;;;;;2.37;2.17;;;;;;;10.86;100.00;98712.22;6306068;28;20307;-53
2024/02/17 10:16:41;;;;;;;2.97;2.67;;;;;;;10.88;100.00;98726.13;6306688;28;20332;-51
2024/02/17 10:19:43;;;;;;;3.70;2.70;;;;;;;10.87;100.00;98732.50;6306237;28;20506;-52
2024/02/17 10:22:46;;;;;;;3.50;3.20;;;;;;;10.63;100.00;98712.78;6311105;28;20203;-53
2024/02/17 10:25:48;;;;;;;3.60;3.30;;;;;;;10.95;100.00;98737.56;6309638;28;20941;-52
2024/02/17 10:28:55;;;;;;;3.97;3.53;;;;;;;10.89;100.00;98737.63;6306902;28;20739;-53
2024/02/17 10:31:59;;;;;;;3.57;3.20;;;;;;;10.80;100.00;98742.41;6308217;28;20548;-54
2024/02/17 10:35:03;;;;;;;3.37;3.03;;;;;;;10.74;100.00;98744.09;6312223;28;20527;-54
2024/02/17 10:38:07;;;;;;;4.77;3.80;;;;;;;10.79;100.00;98743.44;6310951;28;20651;-53
2024/02/17 10:41:12;;;;;;;4.10;3.70;;;;;;;10.77;100.00;98748.16;6301411;28;20238;-54
2024/02/17 10:44:14;;;;;;;4.20;3.80;;;;;;;10.51;100.00;98742.00;6304751;28;20198;-54
2024/02/17 10:47:21;;;;;;;4.60;4.00;;;;;;;10.56;100.00;98723.50;6304102;28;20259;-52
2024/02/17 10:50:23;;;;;;;4.30;3.90;;;;;;;10.72;100.00;98737.34;6310019;28;20201;-54
2024/02/17 10:53:41;;;;;;;4.63;3.97;;;;;;;10.79;100.00;98733.59;6310248;28;20185;-55
2024/02/17 10:56:44;;;;;;;4.87;3.93;;;;;;;10.63;100.00;98743.97;6306227;28;20659;-52
2024/02/17 10:59:56;;;;;;;4.20;3.80;;;;;;;10.73;100.00;98745.09;6308260;28;20670;-52
2024/02/17 11:03:04;;;;;;;4.50;3.80;;;;;;;10.81;100.00;98744.84;6313953;28;20291;-54
2024/02/17 11:06:10;;;;;;;4.50;3.83;;;;;;;10.64;100.00;98749.09;6304746;28;20201;-52
2024/02/17 11:09:14;;;;;;;4.60;3.47;;;;;;;10.53;100.00;98747.09;6298447;28;20411;-54
2024/02/17 11:12:36;;;;;;;5.27;3.90;;;;;;;10.44;100.00;98721.75;6312986;28;21137;-54
2024/02/17 11:16:01;;;;;;;5.03;3.50;;;;;;;10.48;100.00;98737.09;6306241;28;20222;-52
2024/02/17 11:19:09;;;;;;;3.87;3.53;;;;;;;10.49;100.00;98736.06;6307195;28;20780;-55
2024/02/17 11:22:16;;;;;;;3.73;3.17;;;;;;;10.72;100.00;98742.66;6339339;27;20201;-53
2024/02/17 11:25:35;;;;;;;4.17;3.17;;;;;;;10.72;100.00;98753.31;6313158;28;20558;-54
2024/02/17 11:28:38;;;;;;;3.40;2.80;;;;;;;10.64;100.00;98748.25;6304570;28;20205;-53
2024/02/17 11:31:42;;;;;;;2.60;2.30;;;;;;;10.89;100.00;98772.28;6315275;28;20564;-54
2024/02/17 11:34:46;;;;;;;2.57;2.27;;;;;;;10.80;100.00;98772.53;6304991;28;20209;-54
2024/02/17 11:37:53;;;;;;;3.90;2.57;;;;;;;11.01;100.00;98781.19;6306850;28;20189;-54
2024/02/17 11:40:57;;;;;;;3.47;2.57;;;;;;;11.02;100.00;98786.31;6299708;28;20227;-56
2024/02/17 11:44:01;;;;;;;3.00;2.40;;;;;;;11.08;100.00;98785.47;6301188;28;20198;-53
2024/02/17 11:47:04;;;;;;;2.67;2.23;;;;;;;11.19;100.00;98791.13;6312060;28;20326;-55
2024/02/17 11:50:09;;;;;;;2.40;2.20;;;;;;;11.19;100.00;98788.47;6308357;28;20221;-55
2024/02/17 11:53:14;;;;;;;2.40;2.20;;;;;;;11.22;100.00;98790.66;6311539;28;20200;-52
2024/02/17 11:56:16;;;;;;;2.63;2.13;;;;;;;11.09;100.00;98779.09;6309892;28;20188;-53
2024/02/17 11:59:19;;;;;;;2.97;2.23;;;;;;;11.09;100.00;98778.28;6306643;28;20201;-55
2024/02/17 12:02:23;;;;;;;3.77;2.63;;;;;;;11.13;100.00;98792.78;6305827;28;20228;-55
2024/02/17 12:05:29;;;;;;;2.30;2.10;;;;;;;11.12;100.00;98791.16;6310549;28;20682;-55
2024/02/17 12:08:31;;;;;;;2.10;1.90;;;;;;;11.18;100.00;98784.13;6315639;28;20200;-53
2024/02/17 12:11:34;;;;;;;2.20;1.93;;;;;;;11.18;100.00;98798.31;6294662;28;20270;-53
2024/02/17 12:14:37;;;;;;;2.10;1.87;;;;;;;11.19;100.00;98801.78;6302524;28;20490;-54
2024/02/17 12:17:43;;;;;;;2.50;2.00;;;;;;;11.22;100.00;98799.47;6305077;28;20186;-54
2024/02/17 12:20:48;;;;;;;2.37;2.17;;;;;;;11.10;100.00;98802.06;6308185;28;20212;-52
2024/02/17 12:23:54;;;;;;;2.87;2.17;;;;;;;11.30;100.00;98809.88;6290709;28;21120;-55
2024/02/17 12:26:57;;;;;;;2.00;1.80;;;;;;;11.36;100.00;98797.53;6305925;28;20221;-54
2024/02/17 12:29:59;;;;;;;2.10;1.87;;;;;;;11.48;100.00;98798.44;6314029;28;20208;-53
2024/02/17 12:33:09;;;;;;;1.90;1.43;;;;;;;11.71;100.00;98813.81;6316798;28;20582;-54
2024/02/17 12:36:16;;;;;;;2.53;1.57;;;;;;;11.80;100.00;98803.66;6304818;28;20193;-55
2024/02/17 12:39:18;;;;;;;2.40;1.80;;;;;;;11.76;100.00;98810.47;6295672;28;20198;-55
2024/02/17 12:42:20;;;;;;;3.13;1.60;;;;;;;11.58;100.00;98814.78;6300826;28;20231;-55
2024/02/17 12:45:32;;;;;;;2.33;1.80;;;;;;;11.52;100.00;98806.81;6303996;28;20818;-54
2024/02/17 12:48:37;;;;;;;2.10;1.50;;;;;;;11.45;100.00;98809.56;6305382;28;20202;-55
2024/02/17 12:51:39;;;;;;;1.30;1.13;;;;;;;11.52;100.00;98809.47;6301980;28;20575;-56
2024/02/17 12:54:41;;;;;;;2.70;1.60;;;;;;;11.50;100.00;98817.72;6303220;28;20596;-53
2024/02/17 12:57:44;;;;;;;3.10;1.40;;;;;;;11.47;100.00;98818.13;6304985;28;20194;-54
2024/02/17 13:00:47;;;;;;;2.13;1.40;;;;;;;11.25;100.00;98784.91;6300893;28;20193;-54
2024/02/17 13:03:49;;;;;;;2.37;1.60;;;;;;;11.39;100.00;98820.28;6315594;28;20209;-53
2024/02/17 13:06:52;;;;;;;1.60;1.40;;;;;;;11.29;100.00;98818.94;6314537;28;20201;-53
2024/02/17 13:09:56;;;;;;;1.83;1.53;;;;;;;11.47;100.00;98830.66;6304092;28;20205;-56
2024/02/17 13:12:59;;;;;;;1.40;1.10;;;;;;;11.61;100.00;98829.50;6309499;28;20202;-54
2024/02/17 13:16:03;;;;;;;1.90;1.57;;;;;;;11.43;100.00;98819.63;6291373;28;20220;-57
2024/02/17 13:19:06;;;;;;;1.43;1.33;;;;;;;11.40;100.00;98832.59;6303482;28;20197;-54
2024/02/17 13:22:09;;;;;;;1.53;1.43;;;;;;;11.11;100.00;98834.88;6305357;28;20248;-55
2024/02/17 13:25:11;;;;;;;2.27;1.50;;;;;;;10.94;100.00;98839.09;6302128;28;20186;-55
2024/02/17 13:28:13;;;;;;;2.23;1.30;;;;;;;10.95;100.00;98841.53;6302495;28;20588;-55
2024/02/17 13:31:19;;;;;;;1.93;1.63;;;;;;;10.94;100.00;98839.09;6314659;28;20186;-55
2024/02/17 13:34:21;;;;;;;1.90;1.70;;;;;;;11.06;100.00;98840.03;6300989;28;20234;-56
2024/02/17 13:37:24;;;;;;;1.80;1.60;;;;;;;11.28;100.00;98841.31;6305057;28;20656;-54
2024/02/17 13:40:26;;;;;;;2.47;1.73;;;;;;;10.90;100.00;98821.91;6301451;28;20252;-55
2024/02/17 13:43:28;;;;;;;2.40;2.20;;;;;;;10.97;100.00;98844.81;6306037;28;20277;-55
2024/02/17 13:46:31;;;;;;;4.90;1.90;;;;;;;11.00;100.00;98854.22;6305345;28;20220;-56
2024/02/17 13:49:33;;;;;;;2.17;1.70;;;;;;;10.99;100.00;98855.28;6302185;28;20206;-56
2024/02/17 13:52:39;;;;;;;2.10;1.90;;;;;;;10.88;100.00;98855.94;6305950;28;20671;-54
2024/02/17 13:55:41;;;;;;;2.70;1.77;;;;;;;11.18;100.00;98861.47;6311967;28;20189;-55
2024/02/17 13:58:45;;;;;;;2.13;1.83;;;;;;;11.03;100.00;98865.28;6311504;28;20715;-55
2024/02/17 14:01:48;;;;;;;2.43;1.97;;;;;;;10.95;100.00;98881.53;6295327;28;20667;-53
2024/02/17 14:04:50;;;;;;;2.87;1.73;;;;;;;10.76;100.00;98885.94;6297237;28;20953;-55
2024/02/17 14:07:52;;;;;;;1.67;1.57;;;;;;;10.65;100.00;98894.63;6311883;28;20202;-52
2024/02/17 14:10:55;;;;;;;2.67;1.83;;;;;;;10.54;100.00;98901.44;6305664;28;20547;-54
2024/02/17 14:14:00;;;;;;;2.77;1.70;;;;;;;10.50;100.00;98904.72;6303374;28;20272;-54
2024/02/17 14:17:03;;;;;;;2.70;1.60;;;;;;;10.46;100.00;98901.66;6304905;28;20183;-54